sensor_id;sensor_type;location;lat;lon;timestamp;P1;durP1;ratioP1;P2;durP2;ratioP2
14143;SDS011;7152;48.348;10.980;2022-09-09T18:23:17;3.43;;;1.33;;
14143;SDS011;7152;48.348;10.980;2022-09-09T18:25:43;1.50;;;0.80;;
14143;SDS011;7152;48.348;10.980;2022-09-09T18:28:09;2.50;;;0.87;;
14143;SDS011;7152;48.348;10.980;2022-09-09T18:30:38;1.93;;;0.90;;
14143;SDS011;7152;48.348;10.980;2022-09-09T18:33:04;1.97;;;0.70;;
14143;SDS011;7152;48.348;10.980;2022-09-09T18:35:30;1.83;;;0.83;;
14143;SDS011;7152;48.348;10.980;2022-09-09T18:37:55;3.53;;;1.20;;
14143;SDS011;7152;48.348;10.980;2022-09-09T18:40:22;2.07;;;0.80;;
14143;SDS011;7152;48.348;10.980;2022-09-09T18:42:48;5.50;;;1.10;;
14143;SDS011;7152;48.348;10.980;2022-09-09T18:45:14;2.43;;;1.60;;
14143;SDS011;7152;48.348;10.980;2022-09-09T18:47:39;2.00;;;1.30;;
14143;SDS011;7152;48.348;10.980;2022-09-09T18:50:06;3.93;;;1.70;;
14143;SDS011;7152;48.348;10.980;2022-09-09T18:52:32;2.07;;;1.30;;
14143;SDS011;7152;48.348;10.980;2022-09-09T18:54:58;3.33;;;2.73;;
14143;SDS011;7152;48.348;10.980;2022-09-09T18:57:24;4.60;;;2.90;;
14143;SDS011;7152;48.348;10.980;2022-09-09T18:59:49;6.67;;;3.40;;
14143;SDS011;7152;48.348;10.980;2022-09-09T19:02:18;4.10;;;1.70;;
14143;SDS011;7152;48.348;10.980;2022-09-09T19:04:45;4.87;;;1.97;;
14143;SDS011;7152;48.348;10.980;2022-09-09T19:07:11;4.47;;;1.90;;
14143;SDS011;7152;48.348;10.980;2022-09-09T19:09:37;3.27;;;2.10;;
14143;SDS011;7152;48.348;10.980;2022-09-09T19:12:02;3.83;;;1.40;;
14143;SDS011;7152;48.348;10.980;2022-09-09T19:14:30;4.50;;;2.00;;
14143;SDS011;7152;48.348;10.980;2022-09-09T19:16:56;2.73;;;1.70;;
14143;SDS011;7152;48.348;10.980;2022-09-09T19:19:23;4.07;;;1.20;;
14143;SDS011;7152;48.348;10.980;2022-09-09T19:21:51;2.80;;;1.50;;
14143;SDS011;7152;48.348;10.980;2022-09-09T19:24:22;3.03;;;1.40;;
14143;SDS011;7152;48.348;10.980;2022-09-09T19:26:51;2.47;;;1.43;;
14143;SDS011;7152;48.348;10.980;2022-09-09T19:29:22;2.67;;;1.67;;
14143;SDS011;7152;48.348;10.980;2022-09-09T19:31:50;5.30;;;2.43;;
14143;SDS011;7152;48.348;10.980;2022-09-09T19:34:17;5.43;;;3.00;;
14143;SDS011;7152;48.348;10.980;2022-09-09T19:36:44;3.07;;;2.40;;
14143;SDS011;7152;48.348;10.980;2022-09-09T19:39:11;5.57;;;2.50;;
14143;SDS011;7152;48.348;10.980;2022-09-09T19:41:37;2.93;;;1.57;;
14143;SDS011;7152;48.348;10.980;2022-09-09T19:44:04;3.27;;;1.40;;
14143;SDS011;7152;48.348;10.980;2022-09-09T19:46:31;1.57;;;1.30;;
14143;SDS011;7152;48.348;10.980;2022-09-09T19:49:00;3.17;;;1.80;;
14143;SDS011;7152;48.348;10.980;2022-09-09T19:51:27;3.87;;;1.93;;
14143;SDS011;7152;48.348;10.980;2022-09-09T19:54:01;2.23;;;1.60;;
14143;SDS011;7152;48.348;10.980;2022-09-09T19:56:29;3.77;;;2.00;;
14143;SDS011;7152;48.348;10.980;2022-09-09T19:58:57;6.10;;;2.13;;
14143;SDS011;7152;48.348;10.980;2022-09-09T20:01:24;3.73;;;1.80;;
14143;SDS011;7152;48.348;10.980;2022-09-09T20:03:55;3.97;;;2.30;;
14143;SDS011;7152;48.348;10.980;2022-09-09T20:06:23;3.43;;;1.60;;
14143;SDS011;7152;48.348;10.980;2022-09-09T20:08:51;3.00;;;1.43;;
14143;SDS011;7152;48.348;10.980;2022-09-09T20:11:17;3.27;;;1.67;;
14143;SDS011;7152;48.348;10.980;2022-09-09T20:13:44;3.67;;;1.90;;
14143;SDS011;7152;48.348;10.980;2022-09-09T20:16:15;3.10;;;2.00;;
14143;SDS011;7152;48.348;10.980;2022-09-09T20:18:42;2.33;;;1.60;;
14143;SDS011;7152;48.348;10.980;2022-09-09T20:21:19;3.37;;;1.83;;
14143;SDS011;7152;48.348;10.980;2022-09-09T20:23:47;4.30;;;2.00;;
14143;SDS011;7152;48.348;10.980;2022-09-09T20:26:14;3.40;;;2.40;;
14143;SDS011;7152;48.348;10.980;2022-09-09T20:28:42;2.77;;;2.10;;
14143;SDS011;7152;48.348;10.980;2022-09-09T20:31:12;3.50;;;2.03;;
14143;SDS011;7152;48.348;10.980;2022-09-09T20:33:39;2.73;;;1.77;;
14143;SDS011;7152;48.348;10.980;2022-09-09T20:36:13;1.67;;;1.53;;
14143;SDS011;7152;48.348;10.980;2022-09-09T20:38:42;3.80;;;1.80;;
14143;SDS011;7152;48.348;10.980;2022-09-09T20:41:11;2.93;;;2.00;;
14143;SDS011;7152;48.348;10.980;2022-09-09T20:43:59;2.60;;;1.40;;
14143;SDS011;7152;48.348;10.980;2022-09-09T20:46:36;2.23;;;1.83;;
14143;SDS011;7152;48.348;10.980;2022-09-09T20:49:03;1.90;;;1.50;;
14143;SDS011;7152;48.348;10.980;2022-09-09T20:51:32;2.97;;;1.83;;
14143;SDS011;7152;48.348;10.980;2022-09-09T20:54:00;4.20;;;2.00;;
14143;SDS011;7152;48.348;10.980;2022-09-09T20:56:34;2.53;;;1.63;;
14143;SDS011;7152;48.348;10.980;2022-09-09T20:59:02;4.60;;;1.77;;
14143;SDS011;7152;48.348;10.980;2022-09-09T21:01:29;2.23;;;1.60;;
14143;SDS011;7152;48.348;10.980;2022-09-09T21:03:55;2.40;;;1.53;;
14143;SDS011;7152;48.348;10.980;2022-09-09T21:06:21;1.50;;;1.20;;
14143;SDS011;7152;48.348;10.980;2022-09-09T21:08:47;3.17;;;1.50;;
14143;SDS011;7152;48.348;10.980;2022-09-09T21:11:13;2.97;;;1.60;;
14143;SDS011;7152;48.348;10.980;2022-09-09T21:13:39;1.90;;;1.50;;
14143;SDS011;7152;48.348;10.980;2022-09-09T21:16:06;2.40;;;1.37;;
14143;SDS011;7152;48.348;10.980;2022-09-09T21:18:33;2.27;;;1.57;;
14143;SDS011;7152;48.348;10.980;2022-09-09T21:21:00;3.13;;;1.50;;
14143;SDS011;7152;48.348;10.980;2022-09-09T21:23:29;3.40;;;1.53;;
14143;SDS011;7152;48.348;10.980;2022-09-09T21:25:55;3.63;;;1.70;;
14143;SDS011;7152;48.348;10.980;2022-09-09T21:28:20;2.73;;;1.40;;
14143;SDS011;7152;48.348;10.980;2022-09-09T21:30:51;3.43;;;1.60;;
14143;SDS011;7152;48.348;10.980;2022-09-09T21:33:19;1.87;;;1.47;;
14143;SDS011;7152;48.348;10.980;2022-09-09T21:35:46;2.60;;;1.50;;
14143;SDS011;7152;48.348;10.980;2022-09-09T21:38:13;1.80;;;1.50;;
14143;SDS011;7152;48.348;10.980;2022-09-09T21:40:41;3.80;;;1.60;;
14143;SDS011;7152;48.348;10.980;2022-09-09T21:43:09;2.80;;;1.23;;
14143;SDS011;7152;48.348;10.980;2022-09-09T21:45:37;2.73;;;1.87;;
14143;SDS011;7152;48.348;10.980;2022-09-09T21:48:07;3.40;;;1.40;;
14143;SDS011;7152;48.348;10.980;2022-09-09T21:50:38;2.10;;;1.30;;
14143;SDS011;7152;48.348;10.980;2022-09-09T21:53:05;2.73;;;1.43;;
14143;SDS011;7152;48.348;10.980;2022-09-09T21:55:33;4.60;;;1.40;;
14143;SDS011;7152;48.348;10.980;2022-09-09T21:58:00;1.70;;;1.30;;
14143;SDS011;7152;48.348;10.980;2022-09-09T22:00:26;2.87;;;1.40;;
14143;SDS011;7152;48.348;10.980;2022-09-09T22:02:52;1.93;;;1.23;;
14143;SDS011;7152;48.348;10.980;2022-09-09T22:05:17;2.07;;;1.40;;
14143;SDS011;7152;48.348;10.980;2022-09-09T22:07:43;2.07;;;1.30;;
14143;SDS011;7152;48.348;10.980;2022-09-09T22:10:09;2.73;;;1.23;;
14143;SDS011;7152;48.348;10.980;2022-09-09T22:12:35;3.37;;;1.40;;
14143;SDS011;7152;48.348;10.980;2022-09-09T22:15:01;3.47;;;1.23;;
14143;SDS011;7152;48.348;10.980;2022-09-09T22:17:27;1.63;;;1.20;;
14143;SDS011;7152;48.348;10.980;2022-09-09T22:19:54;2.00;;;1.43;;
14143;SDS011;7152;48.348;10.980;2022-09-09T22:22:19;1.97;;;1.30;;
14143;SDS011;7152;48.348;10.980;2022-09-09T22:24:45;4.67;;;1.70;;
14143;SDS011;7152;48.348;10.980;2022-09-09T22:27:12;4.10;;;1.53;;
14143;SDS011;7152;48.348;10.980;2022-09-09T22:29:39;3.10;;;1.73;;
14143;SDS011;7152;48.348;10.980;2022-09-09T22:32:05;2.50;;;1.90;;
14143;SDS011;7152;48.348;10.980;2022-09-09T22:34:31;2.70;;;2.00;;
14143;SDS011;7152;48.348;10.980;2022-09-09T22:36:58;3.83;;;2.50;;
14143;SDS011;7152;48.348;10.980;2022-09-09T22:39:26;4.20;;;2.00;;
14143;SDS011;7152;48.348;10.980;2022-09-09T22:41:52;4.53;;;2.27;;
14143;SDS011;7152;48.348;10.980;2022-09-09T22:44:20;4.07;;;2.37;;
14143;SDS011;7152;48.348;10.980;2022-09-09T22:46:47;4.00;;;2.50;;
14143;SDS011;7152;48.348;10.980;2022-09-09T22:49:13;3.80;;;2.60;;
14143;SDS011;7152;48.348;10.980;2022-09-09T22:51:39;4.33;;;3.00;;
14143;SDS011;7152;48.348;10.980;2022-09-09T22:54:04;4.10;;;2.90;;
14143;SDS011;7152;48.348;10.980;2022-09-09T22:56:31;4.03;;;3.40;;
14143;SDS011;7152;48.348;10.980;2022-09-09T22:58:58;4.43;;;2.77;;
14143;SDS011;7152;48.348;10.980;2022-09-09T23:01:24;4.17;;;2.70;;
14143;SDS011;7152;48.348;10.980;2022-09-09T23:03:51;4.37;;;2.97;;
14143;SDS011;7152;48.348;10.980;2022-09-09T23:06:22;3.90;;;2.83;;
14143;SDS011;7152;48.348;10.980;2022-09-09T23:08:49;2.93;;;2.50;;
14143;SDS011;7152;48.348;10.980;2022-09-09T23:11:17;4.37;;;2.70;;
14143;SDS011;7152;48.348;10.980;2022-09-09T23:13:49;2.43;;;2.23;;
14143;SDS011;7152;48.348;10.980;2022-09-09T23:16:21;2.60;;;2.40;;
14143;SDS011;7152;48.348;10.980;2022-09-09T23:18:49;3.27;;;2.60;;
14143;SDS011;7152;48.348;10.980;2022-09-09T23:21:19;3.27;;;2.30;;
14143;SDS011;7152;48.348;10.980;2022-09-09T23:23:47;2.80;;;2.40;;
14143;SDS011;7152;48.348;10.980;2022-09-09T23:26:16;3.07;;;2.40;;
14143;SDS011;7152;48.348;10.980;2022-09-09T23:28:44;2.80;;;2.20;;
14143;SDS011;7152;48.348;10.980;2022-09-09T23:31:11;2.43;;;2.23;;
14143;SDS011;7152;48.348;10.980;2022-09-09T23:33:39;7.27;;;2.73;;
14143;SDS011;7152;48.348;10.980;2022-09-09T23:36:06;3.30;;;2.10;;
14143;SDS011;7152;48.348;10.980;2022-09-09T23:38:35;2.93;;;1.83;;
14143;SDS011;7152;48.348;10.980;2022-09-09T23:41:02;3.00;;;2.10;;
14143;SDS011;7152;48.348;10.980;2022-09-09T23:43:29;2.37;;;1.60;;
14143;SDS011;7152;48.348;10.980;2022-09-09T23:45:55;3.03;;;1.90;;
14143;SDS011;7152;48.348;10.980;2022-09-09T23:48:21;3.60;;;1.70;;
14143;SDS011;7152;48.348;10.980;2022-09-09T23:50:47;1.90;;;1.80;;
14143;SDS011;7152;48.348;10.980;2022-09-09T23:53:14;4.53;;;1.70;;
14143;SDS011;7152;48.348;10.980;2022-09-09T23:55:41;3.30;;;1.63;;
14143;SDS011;7152;48.348;10.980;2022-09-09T23:58:08;2.03;;;1.40;;
